Nearby METAR Reports


KSYR - Syracuse, New York, USA
Distance from station: SE 5mi, 8km
Updated: Mon, 21-May-2018 11:54pm EDT
Overcast
Overcast
 Wind from ESE
Wind: ESE 3 mph , 6 km/h
Temperature: 61°F , 16°C
Dew Point: 52°F , 11°C
Humidity: 72%
Barometer: 30.15 inHg , 1021 hPa
Clouds: Overcast
Visibility: 10 miles , 16 km
Cloud details: Mostly cloudy 16000 ft
Overcast 18000 ft
2018/05/22 03:54 KSYR 220354Z 11003KT 10SM BKN160 OVC180 16/11 A3015 RMK AO2 SLP206 T01560106
KFZY - Fulton, New York, USA
Distance from station: NW 17mi, 27km
Updated: Mon, 21-May-2018 11:54pm EDT
Clear
Clear
 Wind from calm
Wind: Calm
Temperature: 55°F , 13°C
Dew Point: 46°F , 8°C
Humidity: 72%
Barometer: 30.15 inHg , 1021 hPa
Clouds: Clear
Visibility: 10 miles , 16 km
2018/05/22 03:54 KFZY 220354Z AUTO 00000KT 10SM CLR 13/08 A3015 RMK AO2 SLP209 T01330083
 
KRME - Rome/Griffiss Af, New York, USA
Distance from station: E 39mi, 62km
Updated: Mon, 21-May-2018 11:53pm EDT
Clear
Clear
 Wind from calm
Wind: Calm
Temperature: 54°F , 12°C
Dew Point: 48°F , 9°C
Humidity: 82%
Barometer: 30.18 inHg , 1022 hPa
Clouds: Clear
Visibility: 10 miles , 16 km
2018/05/22 03:53 KRME 220353Z AUTO 00000KT 10SM CLR 12/09 A3018 RMK AO2 SLP217 T01220089
KITH - Ithaca/Tompkins, New York, USA
Distance from station: SSW 51mi, 82km
Updated: Mon, 21-May-2018 11:56pm EDT
Clear
Clear
 Wind from ENE
Wind: ENE 6 mph , 9 km/h
Temperature: 59°F , 15°C
Dew Point: 52°F , 11°C
Humidity: 77%
Barometer: 30.16 inHg , 1021.3 hPa
Clouds: Clear
Visibility: 10 miles , 16 km
2018/05/22 03:56 KITH 220356Z AUTO 07005KT 10SM CLR 15/11 A3016 RMK AO2 SLP211 T01500106
 
KART - Watertown, New York, USA
Distance from station: N 56mi, 91km
Updated: Mon, 21-May-2018 11:56pm EDT
Clear
Clear
 Wind from calm
Wind: Calm
Temperature: 48°F , 9°C
Dew Point: 46°F , 8°C
Humidity: 94%
Barometer: 30.15 inHg , 1021 hPa
Clouds: Clear
Visibility: 10 miles , 16 km
2018/05/22 03:56 KART 220356Z AUTO 00000KT 10SM CLR 09/08 A3015 RMK AO2 SLP208 T00940083
KPEO - Penn Yan, New York, USA
Distance from station: SW 58mi, 93km
Updated: Mon, 21-May-2018 11:53pm EDT
Clear
Clear
 Wind from calm
Wind: Calm
Temperature: 59°F , 15°C
Dew Point: 48°F , 9°C
Humidity: 68%
Barometer: 30.15 inHg , 1021 hPa
Clouds: Clear
Visibility: 10 miles , 16 km
2018/05/22 03:53 KPEO 220353Z AUTO 00000KT 10SM CLR 15/09 A3015 RMK AO2 SLP207 T01500089
 
KGTB - Fort Drum/Wheele, New York, USA
Distance from station: NNE 64mi, 102km
Updated: Mon, 21-May-2018 11:56pm EDT
Overcast
Overcast
 Wind from S
Wind: S 7 mph , 11 km/h
Temperature: 54°F , 12°C
Dew Point: 43°F , 6°C
Humidity: 67%
Barometer: 30.15 inHg , 1021 hPa
Clouds: Overcast
Visibility: 10 miles , 16 km
Cloud details: Overcast 17000 ft
2018/05/22 03:56 KGTB 220356Z AUTO 18006KT 10SM OVC170 12/06 A3015 RMK AO2 SLP210 T01200063
CWQP - Point Petre (mar, Ontario, Canada
Distance from station: NW 67mi, 107km
Updated: Tue, 22-May-2018 12:00am EDT

 Wind from ESE
Wind: ESE 2 mph , 4 km/h
Temperature: 48°F , 9°C
Dew Point: 43°F , 6°C
Humidity: 82%
2018/05/22 04:00 CWQP 220400Z AUTO 12002KT 09/06 RMK AO1 SLP209 T00870056 53004
 
KBGM - Binghamton, New York, USA
Distance from station: S 67mi, 107km
Updated: Wed, 31-Dec-1969 7:00pm EST
NOT Current
unable to load KBGM data RC=404 Not Found
unable to load KBGM data RC=404 Not Found
 
CYGK - Kingston Arpt (m, Ontario, Canada
Distance from station: NNW 75mi, 121km
Updated: Mon, 21-May-2018 11:00pm EDT
Mostly cloudy
Mostly cloudy
 Wind from SSE
Wind: SSE 3 mph , 6 km/h
Temperature: 50°F , 10°C
Dew Point: 45°F , 7°C
Humidity: 82%
Barometer: 30.14 inHg , 1020.7 hPa
Clouds: Mostly cloudy
Visibility: 15 miles , 24 km
Cloud details: Mostly cloudy 20000 ft
2018/05/22 03:00 CYGK 220300Z 16003KT 15SM BKN200 10/07 A3014 RMK CI5 LAST STFD OBS / NEXT 221000 UTC SLP209